Flight Track Log - Related Links

Times and Time Zones

All times are in EDT time to prevent confusion due to time zone crossing. See the SWA3206 flight status page for this flight to view local times or setup timezone preferences in your user account.

Time Position Orientation Groundspeed Altitude Reporting Facility
EDT Latitude Longitude Course Direction KTS MPH feet Rate Location/Type
Sun 08:44:22 PM 33.4333 -112.1333 270° West 216 249 4,300  Level Phoenix TRACON
Sun 08:45:09 PM 33.4467 -112.1844 287° West 242 278 6,200 2,697 Climbing Albuquerque Center
Sun 08:46:11 PM 33.5192 -112.1850 360° North 277 319 9,200 2,927 Climbing Albuquerque Center
Sun 08:47:12 PM 33.5703 -112.1228 45° Northeast 303 349 12,200 2,902 Climbing Albuquerque Center
Sun 08:48:13 PM 33.5869 -112.0111 80° East 336 387 15,100 2,927 Climbing Albuquerque Center
Sun 08:49:15 PM 33.6028 -111.8953 81° East 350 403 18,200 3,122 Climbing Albuquerque Center
Sun 08:50:16 PM 33.6192 -111.7781 80° East 358 412 21,500 2,705 Climbing Albuquerque Center
Sun 08:51:17 PM 33.6361 -111.6594 80° East 363 418 23,700 2,262 Climbing Albuquerque Center
Sun 08:52:18 PM 33.6561 -111.5083 81° East 380 437 26,100 2,244 Climbing Albuquerque Center
Sun 08:53:20 PM 33.6733 -111.3781 81° East 393 452 28,300 2,439 Climbing Albuquerque Center
Sun 08:54:21 PM 33.6936 -111.2522 79° East 389 448 31,100 2,508 Climbing Albuquerque Center
Sun 08:55:22 PM 33.7350 -111.1394 66° East 374 430 33,400 1,902 Climbing Albuquerque Center
Sun 08:56:24 PM 33.7733 -111.0281 67° East 366 421 35,000 780 Climbing Albuquerque Center
Sun 08:57:25 PM 33.8142 -110.9136 67° East 370 426 35,000  Level Albuquerque Center
Sun 08:58:26 PM 33.8547 -110.7986 67° East 374 430 35,000  Level Albuquerque Center
Sun 08:59:29 PM 33.9036 -110.6614 67° East 374 430 35,000  Level Albuquerque Center
Sun 09:00:31 PM 33.9453 -110.5467 66° East 375 432 35,000  Level Albuquerque Center
Sun 09:01:32 PM 33.9839 -110.4317 68° East 374 430 35,000  Level Albuquerque Center
Sun 09:02:33 PM 34.0228 -110.3256 66° East 374 430 35,000  Level Albuquerque Center
Sun 09:03:34 PM 34.0714 -110.1878 67° East 375 432 35,000  Level Albuquerque Center
Sun 09:04:36 PM 34.1133 -110.0653 68° East 377 434 35,000  Level Albuquerque Center
Sun 09:05:37 PM 34.1514 -109.9578 67° East 371 427 35,000  Level Albuquerque Center
Sun 09:06:38 PM 34.1897 -109.8475 67° East 370 426 35,000  Level Albuquerque Center
Sun 09:07:39 PM 34.2339 -109.7167 68° East 375 432 35,000  Level Albuquerque Center
Sun 09:08:41 PM 34.2728 -109.6061 67° East 375 432 35,000  Level Albuquerque Center
Sun 09:09:42 PM 34.3161 -109.4778 68° East 373 429 35,000  Level Albuquerque Center
Sun 09:10:43 PM 34.3542 -109.3661 68° East 374 430 35,000  Level Albuquerque Center
Sun 09:11:44 PM 34.3922 -109.2567 67° East 371 427 35,000  Level Albuquerque Center
Sun 09:12:45 PM 34.4361 -109.1269 68° East 373 429 35,000  Level Albuquerque Center
Sun 09:13:47 PM 34.4736 -109.0167 68° East 371 427 35,000  Level Albuquerque Center
Sun 09:14:48 PM 34.5106 -108.9064 68° East 371 427 35,000  Level Albuquerque Center
Sun 09:15:49 PM 34.5547 -108.7769 67° East 371 427 35,000  Level Albuquerque Center
Sun 09:16:50 PM 34.5922 -108.6625 68° East 375 432 35,000  Level Albuquerque Center
Sun 09:17:52 PM 34.6361 -108.5336 67° East 372 428 35,000  Level Albuquerque Center
Sun 09:18:53 PM 34.6700 -108.4269 69° East 372 428 35,000  Level Albuquerque Center
Sun 09:19:54 PM 34.7092 -108.3089 68° East 375 432 35,000  Level Albuquerque Center
Sun 09:20:55 PM 34.7475 -108.1908 68° East 376 433 35,000  Level Albuquerque Center
Sun 09:21:56 PM 34.7881 -108.0736 67° East 376 433 35,000  Level Albuquerque Center
Sun 09:22:58 PM 34.8256 -107.9544 69° East 377 434 35,000  Level Albuquerque Center
Sun 09:23:59 PM 34.8708 -107.8186 68° East 377 434 35,000  Level Albuquerque Center
Sun 09:25:00 PM 34.9103 -107.6936 69° East 377 434 35,000  Level Albuquerque Center
Sun 09:26:01 PM 34.9486 -107.5758 68° East 375 432 35,000  Level Albuquerque Center
Sun 09:27:02 PM 34.9869 -107.4561 69° East 378 435 35,000  Level Albuquerque Center
Sun 09:28:03 PM 35.0247 -107.3375 69° East 376 433 35,000  Level Albuquerque Center
Sun 09:29:05 PM 35.0622 -107.2186 69° East 375 432 35,000  Level Albuquerque Center
Sun 09:30:06 PM 35.1014 -107.0983 68° East 380 437 35,000  Level Albuquerque Center
Sun 09:31:07 PM 35.1419 -106.9661 69° East 374 430 35,000  Level Albuquerque Center
Sun 09:32:08 PM 35.1783 -106.8544 68° East 372 428 35,000  Level Albuquerque Center
Sun 09:33:09 PM 35.2150 -106.7394 69° East 377 434 35,000  Level Albuquerque Center
Sun 09:34:10 PM 35.2567 -106.6058 69° East 378 435 35,000  Level Albuquerque Center
Sun 09:35:11 PM 35.2914 -106.4900 70° East 383 441 35,000  Level Albuquerque Center
Sun 09:36:12 PM 35.3292 -106.3697 69° East 378 435 35,000  Level Albuquerque Center
Sun 09:37:13 PM 35.3656 -106.2489 70° East 378 435 35,000  Level Albuquerque Center
Sun 09:38:15 PM 35.4042 -106.1283 69° East 379 436 35,000  Level Albuquerque Center
Sun 09:39:16 PM 35.4400 -106.0094 70° East 375 432 35,000  Level Albuquerque Center
Sun 09:40:17 PM 35.4803 -105.8761 70° East 371 427 35,000  Level Albuquerque Center
Sun 09:41:18 PM 35.5164 -105.7550 70° East 372 428 35,000  Level Albuquerque Center
Sun 09:42:19 PM 35.5539 -105.6336 69° East 375 432 35,000  Level Albuquerque Center
Sun 09:43:20 PM 35.5892 -105.5125 70° East 375 432 35,000  Level Albuquerque Center
Sun 09:44:21 PM 35.6219 -105.3950 71° East 365 420 35,000  Level Albuquerque Center
Sun 09:45:22 PM 35.6619 -105.2703 68° East 380 437 35,000  Level Albuquerque Center
Sun 09:46:23 PM 35.6978 -105.1469 70° East 379 436 35,000  Level Albuquerque Center
Sun 09:47:24 PM 35.7325 -105.0253 71° East 374 430 35,000  Level Albuquerque Center
Sun 09:48:25 PM 35.7692 -104.9008 70° East 380 437 35,000  Level Albuquerque Center
Sun 09:49:26 PM 35.8069 -104.7775 69° East 381 438 35,000  Level Albuquerque Center
Sun 09:50:27 PM 35.8422 -104.6528 71° East 380 437 35,000  Level Albuquerque Center
Sun 09:51:28 PM 35.8789 -104.5272 70° East 383 441 35,000  Level Albuquerque Center
Sun 09:52:29 PM 35.9147 -104.4014 71° East 384 442 35,000  Level Albuquerque Center
Sun 09:53:30 PM 35.9514 -104.2772 70° East 381 438 35,000  Level Albuquerque Center
Sun 09:54:32 PM 35.9867 -104.1531 71° East 380 437 35,000  Level Albuquerque Center
Sun 09:55:33 PM 36.0228 -104.0264 71° East 384 442 35,000  Level Albuquerque Center
Sun 09:56:34 PM 36.0578 -103.9006 71° East 384 442 35,000  Level Albuquerque Center
Sun 09:57:35 PM 36.0997 -103.7544 70° East 383 441 35,000  Level Albuquerque Center
Sun 09:58:36 PM 36.1361 -103.6292 70° East 383 441 35,000  Level Albuquerque Center
Sun 09:59:37 PM 36.1719 -103.5036 70° East 383 441 35,000  Level Albuquerque Center
Sun 10:00:38 PM 36.2081 -103.3742 71° East 390 449 35,000  Level Albuquerque Center
Sun 10:01:39 PM 36.2439 -103.2436 71° East 395 455 35,000  Level Albuquerque Center
Sun 10:02:40 PM 36.2775 -103.1125 72° East 395 455 35,000  Level Albuquerque Center
Sun 10:03:41 PM 36.3128 -102.9833 71° East 394 453 35,000  Level Albuquerque Center
Sun 10:04:42 PM 36.3483 -102.8569 71° East 394 453 35,000  Level Albuquerque Center
Sun 10:05:44 PM 36.3828 -102.7289 71° East 392 451 35,000  Level Albuquerque Center
Sun 10:06:45 PM 36.4175 -102.5994 72° East 393 452 35,000  Level Albuquerque Center
Sun 10:07:46 PM 36.4533 -102.4711 71° East 394 453 35,000  Level Albuquerque Center
Sun 10:08:47 PM 36.4872 -102.3419 72° East 393 452 35,000  Level Albuquerque Center
Sun 10:09:48 PM 36.5211 -102.2128 72° East 393 452 35,000  Level Albuquerque Center
Sun 10:10:49 PM 36.5558 -102.0836 71° East 394 453 35,000  Level Albuquerque Center
Sun 10:11:50 PM 36.5950 -101.9347 72° East 392 451 35,000  Level Albuquerque Center
Sun 10:12:51 PM 36.6272 -101.8106 72° East 393 452 35,000  Level Albuquerque Center
Sun 10:13:52 PM 36.6594 -101.6861 72° East 394 453 35,000  Level Albuquerque Center
Sun 10:14:54 PM 36.6975 -101.5411 72° East 395 455 35,000  Level Albuquerque Center
Sun 10:15:55 PM 36.7289 -101.4175 72° East 393 452 35,000  Level Albuquerque Center
Sun 10:16:56 PM 36.7667 -101.2733 72° East 393 452 35,000  Level Albuquerque Center
Sun 10:17:12 PM 36.7725 -101.2539 69° East 392 451 35,000  Level Kansas City Center
Sun 10:18:13 PM 36.8097 -101.1078 72° East 396 456 35,000  Level Kansas City Center
Sun 10:19:14 PM 36.8417 -100.9800 73° East 401 461 35,000  Level Kansas City Center
Sun 10:20:16 PM 36.8736 -100.8536 72° East 401 461 35,000  Level Kansas City Center
Sun 10:21:17 PM 36.9100 -100.7067 73° East 399 459 35,000  Level Kansas City Center
Sun 10:22:18 PM 36.9414 -100.5806 73° East 400 460 35,000  Level Kansas City Center
Sun 10:23:19 PM 36.9772 -100.4353 73° East 395 455 35,000  Level Kansas City Center
Sun 10:24:20 PM 37.0086 -100.3111 72° East 393 452 35,000  Level Kansas City Center
Sun 10:25:22 PM 37.0442 -100.1650 73° East 394 453 35,000  Level Kansas City Center
Sun 10:26:23 PM 37.0750 -100.0397 73° East 395 455 35,000  Level Kansas City Center
Sun 10:27:24 PM 37.1050 -99.9125 73° East 397 457 35,000  Level Kansas City Center
Sun 10:28:25 PM 37.1411 -99.7653 73° East 398 458 35,000  Level Kansas City Center
Sun 10:29:26 PM 37.1711 -99.6375 74° East 399 459 35,000  Level Kansas City Center
Sun 10:30:27 PM 37.2075 -99.4892 73° East 401 461 35,000  Level Kansas City Center
Sun 10:31:29 PM 37.2383 -99.3578 74° East 399 459 35,000  Level Kansas City Center
Sun 10:32:30 PM 37.2694 -99.2267 73° East 396 456 35,000  Level Kansas City Center
Sun 10:33:31 PM 37.3011 -99.0939 73° East 395 455 35,000  Level Kansas City Center
Sun 10:34:32 PM 37.3333 -98.9572 73° East 399 459 35,000  Level Kansas City Center
Sun 10:35:34 PM 37.3656 -98.8211 73° East 403 464 35,000  Level Kansas City Center
Sun 10:36:35 PM 37.3947 -98.6875 75° East 400 460 35,000  Level Kansas City Center
Sun 10:37:36 PM 37.4261 -98.5522 74° East 403 464 35,000  Level Kansas City Center
Sun 10:38:37 PM 37.4569 -98.4164 74° East 404 465 35,000  Level Kansas City Center
Sun 10:39:38 PM 37.4875 -98.2814 74° East 405 466 35,000  Level Kansas City Center
Sun 10:40:39 PM 37.5186 -98.1472 74° East 402 463 35,000  Level Kansas City Center
Sun 10:41:40 PM 37.5489 -98.0122 74° East 403 464 35,000  Level Kansas City Center
Sun 10:42:42 PM 37.5844 -97.8514 74° East 402 463 35,000  Level Kansas City Center
Sun 10:43:43 PM 37.6150 -97.7172 74° East 403 464 35,000  Level Kansas City Center
Sun 10:44:44 PM 37.6394 -97.5975 76° East 397 457 35,000  Level Kansas City Center
Sun 10:45:45 PM 37.6719 -97.4519 74° East 397 457 35,000  Level Kansas City Center
Sun 10:46:46 PM 37.7028 -97.3164 74° East 403 464 35,000  Level Kansas City Center
Sun 10:47:47 PM 37.7322 -97.1817 75° East 399 459 35,000  Level Kansas City Center
Sun 10:48:48 PM 37.7608 -97.0458 75° East 400 460 35,000  Level Kansas City Center
Sun 10:49:49 PM 37.7900 -96.9119 75° East 398 458 35,000  Level Kansas City Center
Sun 10:50:50 PM 37.8194 -96.7733 75° East 398 458 35,000  Level Kansas City Center
Sun 10:51:51 PM 37.8525 -96.6144 75° East 400 460 35,000  Level Kansas City Center
Sun 10:52:52 PM 37.8978 -96.4922 65° Northeast 385 443 35,000  Level Kansas City Center
Sun 10:53:53 PM 37.9622 -96.3894 51° Northeast 374 430 35,000  Level Kansas City Center
Sun 10:54:54 PM 38.0258 -96.2847 52° Northeast 375 432 35,000  Level Kansas City Center
Sun 10:55:55 PM 38.0903 -96.1808 52° Northeast 376 433 35,000  Level Kansas City Center
Sun 10:56:56 PM 38.1514 -96.0803 52° Northeast 366 421 35,000  Level Kansas City Center
Sun 10:57:57 PM 38.2225 -95.9633 52° Northeast 372 428 35,000  Level Kansas City Center
Sun 10:58:59 PM 38.2833 -95.8636 52° Northeast 374 430 35,000  Level Kansas City Center
Sun 11:00:00 PM 38.3450 -95.7639 52° Northeast 375 432 35,000  Level Kansas City Center
Sun 11:01:01 PM 38.4153 -95.6483 52° Northeast 369 425 35,000  Level Kansas City Center
Sun 11:02:02 PM 38.4747 -95.5486 53° Northeast 370 426 35,000  Level Kansas City Center
Sun 11:03:03 PM 38.5094 -95.4019 73° East 407 468 35,000  Level Kansas City Center
Sun 11:04:04 PM 38.5311 -95.2725 78° East 395 455 35,000  Level Kansas City Center
Sun 11:05:04 PM 38.5528 -95.1439 78° East 391 450 35,000  Level Kansas City Center
Sun 11:06:05 PM 38.5778 -94.9906 78° East 394 453 35,000  Level Kansas City Center
Sun 11:07:06 PM 38.6000 -94.8592 78° East 396 456 35,000  Level Kansas City Center
Sun 11:08:07 PM 38.6211 -94.7264 78° East 397 457 35,000  Level Kansas City Center
Sun 11:09:08 PM 38.6472 -94.5722 78° East 398 458 35,000  Level Kansas City Center
Sun 11:10:09 PM 38.6672 -94.4417 79° East 395 455 35,000  Level Kansas City Center
Sun 11:11:10 PM 38.6917 -94.2903 78° East 390 449 35,000  Level Kansas City Center
Sun 11:12:10 PM 38.7117 -94.1608 79° East 389 448 35,000  Level Kansas City Center
Sun 11:13:11 PM 38.7322 -94.0297 79° East 391 450 35,000  Level Kansas City Center
Sun 11:14:12 PM 38.7564 -93.8778 78° East 391 450 35,000  Level Kansas City Center
Sun 11:15:13 PM 38.7769 -93.7417 79° East 392 451 35,000 393 Level Kansas City Center
Sun 11:16:14 PM 38.7961 -93.6181 79° East 391 450 35,800 885 Climbing Kansas City Center
Sun 11:17:15 PM 38.8181 -93.4797 78° East 393 452 36,800 590 Climbing Kansas City Center
Sun 11:18:16 PM 38.8411 -93.3314 79° East 408 470 37,000 99 Climbing Kansas City Center
Sun 11:19:16 PM 38.8625 -93.1833 79° East 418 481 37,000  Level Kansas City Center
Sun 11:20:17 PM 38.8842 -93.0350 79° East 420 483 37,000  Level Kansas City Center
Sun 11:21:18 PM 38.9061 -92.8881 79° East 418 481 37,000  Level Kansas City Center
Sun 11:22:19 PM 38.9272 -92.7397 80° East 420 483 37,000  Level Kansas City Center
Sun 11:23:19 PM 38.9483 -92.5903 80° East 420 483 37,000  Level Kansas City Center
Sun 11:24:20 PM 38.9697 -92.4397 80° East 424 488 37,000  Level Kansas City Center
Sun 11:25:21 PM 38.9906 -92.2875 80° East 427 491 37,000 393 Level Kansas City Center
Sun 11:26:22 PM 39.0178 -92.1039 79° East 429 494 37,800 689 Climbing Kansas City Center
Sun 11:27:23 PM 39.0386 -91.9431 80° East 442 509 38,400 595 Climbing Kansas City Center
Sun 11:28:23 PM 39.0608 -91.7778 80° East 459 528 39,000 298 Climbing Kansas City Center
Sun 11:29:24 PM 39.0781 -91.6436 81° East 463 533 39,000  Level Kansas City Center
Sun 11:30:25 PM 39.1022 -91.4772 79° East 468 539 39,000  Level Kansas City Center
Sun 11:31:26 PM 39.1283 -91.2806 80° East 468 539 39,000  Level Kansas City Center
Sun 11:32:26 PM 39.1494 -91.1156 81° East 467 537 39,000  Level Kansas City Center
Sun 11:33:27 PM 39.1708 -90.9497 81° East 468 539 39,000  Level Kansas City Center
Sun 11:34:28 PM 39.1925 -90.7847 80° East 467 537 39,000  Level Kansas City Center
Sun 11:35:29 PM 39.2133 -90.6183 81° East 467 537 39,000  Level Kansas City Center
Sun 11:36:29 PM 39.2344 -90.4494 81° East 472 543 39,000  Level Kansas City Center
Sun 11:37:30 PM 39.2550 -90.2792 81° East 476 548 39,000  Level Kansas City Center
Sun 11:38:31 PM 39.2756 -90.1083 81° East 479 551 39,000  Level Kansas City Center
Sun 11:39:31 PM 39.2961 -89.9378 81° East 480 552 39,000  Level Kansas City Center
Sun 11:40:32 PM 39.3161 -89.7664 81° East 481 554 39,000  Level Kansas City Center
Sun 11:41:33 PM 39.3361 -89.5958 81° East 481 554 39,000  Level Kansas City Center
Sun 11:42:34 PM 39.3558 -89.4244 81° East 482 555 39,000  Level Kansas City Center
Sun 11:43:34 PM 39.3747 -89.2528 82° East 483 556 39,000  Level Kansas City Center
Sun 11:44:35 PM 39.3953 -89.0806 81° East 484 557 39,000  Level Kansas City Center
Sun 11:45:36 PM 39.4158 -88.8894 82° East 485 558 39,000  Level Kansas City Center
Sun 11:46:37 PM 39.4356 -88.7169 82° East 487 560 39,000  Level Kansas City Center
Sun 11:47:37 PM 39.4528 -88.5542 82° East 482 555 39,000  Level Kansas City Center
Sun 11:48:38 PM 39.4703 -88.3825 82° East 480 552 39,000  Level Kansas City Center
Sun 11:49:39 PM 39.4903 -88.2058 82° East 486 559 39,000  Level Kansas City Center
Sun 11:50:39 PM 39.5092 -88.0308 82° East 488 562 39,000  Level Kansas City Center
Sun 11:51:40 PM 39.5261 -87.8569 83° East 486 559 39,000  Level Kansas City Center
Sun 11:52:02 PM 39.5319 -87.7858 84° East 483 556 39,000  Level Indianapolis Center
Sun 11:53:02 PM 39.5492 -87.6128 83° East 487 560 39,000  Level Indianapolis Center
Sun 11:54:02 PM 39.5658 -87.4389 83° East 489 563 39,000  Level Indianapolis Center
Sun 11:55:03 PM 39.5839 -87.2658 82° East 487 560 39,000  Level Indianapolis Center
Sun 11:56:03 PM 39.5997 -87.0883 83° East 492 566 39,000  Level Indianapolis Center
Sun 11:57:03 PM 39.6161 -86.9133 83° East 494 568 39,000  Level Indianapolis Center
Sun 11:58:04 PM 39.6328 -86.7375 83° East 495 570 39,000  Level Indianapolis Center
Sun 11:59:04 PM 39.6481 -86.5608 84° East 497 572 39,000  Level Indianapolis Center
Mon 12:00:04 AM 39.6644 -86.3847 83° East 499 574 39,000  Level Indianapolis Center
Mon 12:01:05 AM 39.6797 -86.1931 84° East 497 572 39,000  Level Indianapolis Center
Mon 12:02:05 AM 39.6936 -86.0425 83° East 495 570 39,000  Level Indianapolis Center
Mon 12:03:05 AM 39.7078 -85.8656 84° East 496 571 39,000  Level Indianapolis Center
Mon 12:04:05 AM 39.7256 -85.6503 84° East 501 577 39,000  Level Indianapolis Center
Mon 12:05:06 AM 39.7397 -85.4711 84° East 502 578 39,000  Level Indianapolis Center
Mon 12:06:06 AM 39.7547 -85.2914 84° East 502 578 39,000  Level Indianapolis Center
Mon 12:07:06 AM 39.7606 -85.1097 88° East 506 582 39,000  Level Indianapolis Center
Mon 12:08:06 AM 39.7539 -84.9269 93° East 508 585 39,000  Level Indianapolis Center
Mon 12:09:07 AM 39.7503 -84.7628 92° East 509 586 39,000  Level Indianapolis Center
Mon 12:10:07 AM 39.7458 -84.5783 92° East 509 586 39,000  Level Indianapolis Center
Mon 12:11:07 AM 39.7414 -84.3931 92° East 510 587 39,000  Level Indianapolis Center
Mon 12:12:07 AM 39.7367 -84.2094 92° East 507 583 39,000  Level Indianapolis Center
Mon 12:13:07 AM 39.7311 -84.0258 92° East 506 582 39,000  Level Indianapolis Center
Mon 12:14:08 AM 39.7250 -83.8428 92° East 505 581 39,000  Level Indianapolis Center
Mon 12:15:08 AM 39.7194 -83.6594 92° East 507 583 39,000  Level Indianapolis Center
Mon 12:16:08 AM 39.7147 -83.4775 92° East 512 589 39,000  Level Indianapolis Center
Mon 12:17:08 AM 39.7083 -83.2972 93° East 508 585 39,000  Level Indianapolis Center
Mon 12:18:09 AM 39.7008 -83.1139 93° East 509 586 39,000  Level Indianapolis Center
Mon 12:19:09 AM 39.6939 -82.9294 93° East 509 586 39,000  Level Indianapolis Center
Mon 12:20:09 AM 39.6864 -82.7439 93° East 509 586 39,000  Level Indianapolis Center
Mon 12:21:09 AM 39.6786 -82.5572 93° East 514 592 39,000  Level Indianapolis Center
Mon 12:22:10 AM 39.6697 -82.3708 93° East 514 592 39,000  Level Indianapolis Center
Mon 12:23:10 AM 39.6628 -82.1828 93° East 516 594 39,000  Level Indianapolis Center
Mon 12:24:10 AM 39.6544 -82.0086 94° East 517 595 39,000  Level Indianapolis Center
Mon 12:25:10 AM 39.6461 -81.8219 93° East 516 594 39,000  Level Indianapolis Center
Mon 12:26:10 AM 39.6364 -81.6344 94° East 518 596 39,000  Level Indianapolis Center
Mon 12:27:10 AM 39.6261 -81.4467 94° East 519 597 39,000  Level Indianapolis Center
Mon 12:28:11 AM 39.6172 -81.2597 93° East 518 596 39,000  Level Indianapolis Center
Mon 12:29:11 AM 39.6061 -81.0717 94° East 520 598 39,000  Level Indianapolis Center
Mon 12:30:11 AM 39.5967 -80.8833 94° East 521 600 39,000  Level Indianapolis Center
Mon 12:31:11 AM 39.5850 -80.6961 95° East 520 598 39,000  Level Indianapolis Center
Mon 12:32:11 AM 39.5747 -80.5108 94° East 516 594 39,000  Level Indianapolis Center
Mon 12:32:51 AM 39.5644 -80.3806 96° East 521 600 39,000  Level Washington Center
Mon 12:33:53 AM 39.5486 -80.1992 96° East 521 600 39,000  Level Washington Center
Mon 12:34:54 AM 39.5325 -80.0153 96° East 521 600 39,000  Level Washington Center
Mon 12:35:53 AM 39.5161 -79.8339 97° East 521 600 39,000  Level Washington Center
Mon 12:36:53 AM 39.4994 -79.6500 97° East 521 600 39,000  Level Washington Center
Mon 12:37:51 AM 39.4806 -79.4689 98° East 521 600 39,000 -545 Level Washington Center
Mon 12:38:54 AM 39.4597 -79.2633 97° East 521 600 37,900 -1,050 Descending Washington Center
Mon 12:39:51 AM 39.4403 -79.0742 98° East 528 608 36,900 -2,256 Descending Washington Center
Mon 12:40:51 AM 39.4208 -78.8825 97° East 528 608 33,500 -3,150 Descending Washington Center
Mon 12:41:51 AM 39.4008 -78.6911 98° East 533 613 30,600 -2,852 Descending Washington Center
Mon 12:42:53 AM 39.3825 -78.5103 97° East 527 606 27,700 -3,000 Descending Washington Center
Mon 12:43:53 AM 39.3639 -78.3269 97° East 520 598 24,500 -3,051 Descending Washington Center
Mon 12:44:51 AM 39.3447 -78.1544 98° East 504 580 21,700 -2,746 Descending Washington Center
Mon 12:45:51 AM 39.3253 -77.9875 99° East 483 556 19,100 -2,600 Descending Washington Center
Mon 12:46:51 AM 39.3094 -77.8286 97° East 461 531 16,500 -2,557 Descending Washington Center
Mon 12:47:53 AM 39.2892 -77.6778 100° East 437 503 13,900 -2,557 Descending Washington Center
Mon 12:48:53 AM 39.2750 -77.5328 97° East 421 484 11,300 -1,550 Descending Washington Center
Mon 12:49:53 AM 39.2622 -77.4144 98° East 398 458 10,800 -1,050 Descending Washington Center
Mon 12:50:53 AM 39.2472 -77.3014 100° East 356 410 9,200 -1,920 Descending Washington Center
Mon 12:51:08 AM 39.2500 -77.2667 84° East 330 380 8,400 -2,160 Descending Potomac TRACON
Mon 12:52:08 AM 39.2333 -77.1500 100° East 309 356 6,500 -1,889 Descending Potomac TRACON
Mon 12:52:56 AM 39.2167 -77.0667 104° East 303 349 5,000 -1,611 Descending Potomac TRACON
Mon 12:53:56 AM 39.2000 -76.9667 102° East 297 342 3,600 -1,000 Descending Potomac TRACON
Mon 12:54:56 AM 39.1500 -76.9000 134° Southeast 289 333 3,000 -350 Descending Potomac TRACON
Mon 12:55:56 AM 39.1000 -76.8167 128° Southeast 265 305 2,900 -550 Descending Potomac TRACON
Mon 12:56:56 AM 39.0667 -76.7500 123° Southeast 247 284 1,900 -700 Descending Potomac TRACON
Mon 12:57:56 AM 39.0667 -76.6833 90° East 214 246 1,500 -200 Descending Potomac TRACON
Mon 12:58:56 AM 39.0833 -76.6333 67° East 177 204 1,500 -150 Level Potomac TRACON
Mon 12:59:56 AM 39.1167 -76.6000 38° Northeast 159 183 1,200 -347 Descending Potomac TRACON
Mon 01:00:57 AM 39.1333 -76.6333 303° West 118 136 800 -393 Descending Potomac TRACON
Mon 01:02:00 AM 39.1667 -76.6667 343° North  Level FlightAware Approximate
Mon 01:09:00 AM 39.1754 -76.6683 343° North  Level Estimated
Mon 01:10:00 AM 39.1754 -76.6683 343° North  Level Estimated

Login

Don't have an account? Register now (free) for customized features, flight alerts, and more!